CYMT

Details ICAO CYMT (YMT)
Name CHAPAIS
Region Canada
Timezone America/Montreal (UTC-4.0)
Plans Departing 6
Arriving 14
Stats Elevation 1,270 ft / 387 m (AMSL)
Location 49.771862° -74.527972°
Runways 1
Magnetic Variation 15.414° W
Sunrise 2018-05-23 09:04:34 UTC / 2018-05-23 05:04:34 Local
Sunset 2018-05-24 00:48:03 UTC / 2018-05-23 20:48:03 Local
Advertisement - Login to hide

Runways

ID Width Length Bearing (true) Bearing (mag) Surface Threshold Offset Overrun Length
05 150 ft / 46 m 6,491 ft / 1,979 m 28.21° 43.62° Asphalt 0 ft / 0 m 0 ft / 0 m
23 150 ft / 46 m 6,491 ft / 1,979 m 208.22° 223.63° Asphalt 0 ft / 0 m 0 ft / 0 m

Map

Weather


0- 5 10 15 20 25 30 35+ Temperature / ° C

Clouds and Precipitation
Forecast for 2018-05-24 00:00 UTC. Updated 5 hours ago

Ground ~20,000 ft ~40,000 ft Winds

METAR

CYMT 240400Z AUTO 30005KT 9SM CLR 02/M04 A3008 RMK SLP203

TAF

TAF CYMT 231739Z 2318/2324 34012KT P6SM SCT030 BKN100 BECMG 2322/2324 34005KT RMK FCST BASED ON AUTO OBS. NXT FCST WILL BE ISSUED AT 241145Z
Warning: Do not use this data for real-world aviation or navigation. No guarantee of current accuracy is given.